createdAt,value
2023-01-09T00:00:16.778Z,1.48
2023-01-09T00:01:23.926Z,1.25
2023-01-09T00:02:26.276Z,1.63
2023-01-09T00:03:29.705Z,1.88
2023-01-09T00:04:32.268Z,1.60
2023-01-09T00:05:34.577Z,1.33
2023-01-09T00:06:37.485Z,1.60
2023-01-09T00:07:39.837Z,1.70
2023-01-09T00:08:42.138Z,1.52
2023-01-09T00:09:44.512Z,1.35
2023-01-09T00:10:49.501Z,1.65
2023-01-09T00:11:54.756Z,1.65
2023-01-09T00:12:57.073Z,1.48
2023-01-09T00:13:59.454Z,1.40
2023-01-09T00:15:02.103Z,1.73
2023-01-09T00:16:06.562Z,1.70
2023-01-09T00:17:08.841Z,1.77
2023-01-09T00:18:11.205Z,1.58
2023-01-09T00:19:13.738Z,1.63
2023-01-09T00:20:16.620Z,2.33
2023-01-09T00:21:19.763Z,1.25
2023-01-09T00:22:22.116Z,1.65
2023-01-09T00:23:24.421Z,1.20
2023-01-09T00:24:26.738Z,1.40
2023-01-09T00:25:29.058Z,1.38
2023-01-09T00:26:31.389Z,1.67
2023-01-09T00:27:36.208Z,1.75
2023-01-09T00:28:39.012Z,1.67
2023-01-09T00:29:42.196Z,1.60
2023-01-09T00:30:44.560Z,1.45
2023-01-09T00:31:46.873Z,1.33
2023-01-09T00:32:49.319Z,1.35
2023-01-09T00:33:59.563Z,1.50
2023-01-09T00:35:02.564Z,1.17
2023-01-09T00:36:05.709Z,8.00
2023-01-09T00:37:11.839Z,33.80
2023-01-09T00:38:14.164Z,58.10
2023-01-09T00:39:16.496Z,23.75
2023-01-09T00:40:19.908Z,13.82
2023-01-09T00:41:33.106Z,8.73
2023-01-09T00:42:36.635Z,9.02
2023-01-09T00:43:44.826Z,7.20
2023-01-09T00:44:53.362Z,6.43
2023-01-09T00:45:55.877Z,5.72
2023-01-09T00:47:03.089Z,5.03
2023-01-09T00:48:12.094Z,4.70
2023-01-09T00:49:15.615Z,4.55
2023-01-09T00:50:31.830Z,4.60
2023-01-09T00:51:34.552Z,4.63
2023-01-09T00:52:38.401Z,4.07
2023-01-09T00:53:42.778Z,4.03
2023-01-09T00:54:46.141Z,4.05
2023-01-09T00:55:48.463Z,3.20
2023-01-09T00:56:51.107Z,3.40
2023-01-09T00:57:53.487Z,2.97
2023-01-09T00:58:56.149Z,2.65
2023-01-09T00:59:59.616Z,16.48
2023-01-09T01:01:02.107Z,41.63
2023-01-09T01:02:04.615Z,74.65
2023-01-09T01:03:07.007Z,35.00
2023-01-09T01:04:28.165Z,21.20
2023-01-09T01:05:49.129Z,15.57
2023-01-09T01:07:10.234Z,13.40
2023-01-09T01:08:17.214Z,11.73
2023-01-09T01:09:19.659Z,10.45
2023-01-09T01:10:25.315Z,10.05
2023-01-09T01:11:27.757Z,10.05
2023-01-09T01:12:30.383Z,9.55
2023-01-09T01:13:32.712Z,8.85
2023-01-09T01:14:36.677Z,7.97
2023-01-09T01:15:40.553Z,8.02
2023-01-09T01:16:42.902Z,7.75
2023-01-09T01:17:45.716Z,7.88
2023-01-09T01:18:48.704Z,7.88
2023-01-09T01:19:51.012Z,7.05
2023-01-09T01:20:53.452Z,7.05
2023-01-09T01:21:56.160Z,7.03
2023-01-09T01:22:58.500Z,7.15
2023-01-09T01:24:00.805Z,6.72
2023-01-09T01:25:04.520Z,6.40
2023-01-09T01:26:12.827Z,6.00
2023-01-09T01:27:15.228Z,6.55
2023-01-09T01:28:17.593Z,5.95
2023-01-09T01:29:19.938Z,6.22
2023-01-09T01:30:22.483Z,5.70
2023-01-09T01:31:25.067Z,5.75
2023-01-09T01:32:27.443Z,6.22
2023-01-09T01:33:29.903Z,5.40
2023-01-09T01:34:32.434Z,6.03
2023-01-09T01:35:35.158Z,5.88
2023-01-09T01:36:37.660Z,5.40
2023-01-09T01:37:40.338Z,5.43
2023-01-09T01:38:43.152Z,5.30
2023-01-09T01:39:45.456Z,4.57
2023-01-09T01:40:53.429Z,5.20
2023-01-09T01:41:55.847Z,4.22
2023-01-09T01:42:58.724Z,4.55
2023-01-09T01:44:53.096Z,4.38
2023-01-09T01:45:55.758Z,4.07
2023-01-09T01:46:58.134Z,4.40
2023-01-09T01:48:14.021Z,3.78
2023-01-09T01:49:20.302Z,16.70
2023-01-09T01:50:32.103Z,26.10
2023-01-09T01:51:40.271Z,28.92
2023-01-09T01:52:47.593Z,17.33
2023-01-09T01:53:54.338Z,12.02
2023-01-09T01:54:56.839Z,9.50
2023-01-09T01:56:11.438Z,7.93
2023-01-09T01:57:14.339Z,6.47
2023-01-09T01:58:17.082Z,6.47
2023-01-09T01:59:50.718Z,6.28
2023-01-09T02:00:53.118Z,5.85
2023-01-09T02:01:59.765Z,5.43
2023-01-09T02:03:03.770Z,5.85
2023-01-09T02:04:06.575Z,5.13
2023-01-09T02:05:09.302Z,5.15
2023-01-09T02:06:12.922Z,5.03
2023-01-09T02:07:15.390Z,5.32
2023-01-09T02:08:18.364Z,5.45
2023-01-09T02:09:22.860Z,4.75
2023-01-09T02:10:25.410Z,5.28
2023-01-09T02:11:28.875Z,4.10
2023-01-09T02:12:31.204Z,4.45
2023-01-09T02:13:36.040Z,4.55
2023-01-09T02:14:38.330Z,4.30
2023-01-09T02:16:13.178Z,4.07
2023-01-09T02:17:39.862Z,4.13
2023-01-09T02:19:17.293Z,3.70
2023-01-09T02:20:35.732Z,3.78
2023-01-09T02:22:07.528Z,4.28
2023-01-09T02:23:38.935Z,3.60
2023-01-09T02:25:13.814Z,3.50
2023-01-09T02:26:35.223Z,3.42
2023-01-09T02:28:07.100Z,3.85
2023-01-09T02:29:49.991Z,3.88
2023-01-09T02:31:02.210Z,2.83
2023-01-09T02:32:24.006Z,3.22
2023-01-09T02:33:32.391Z,2.95
2023-01-09T02:34:46.573Z,3.40
2023-01-09T02:35:57.823Z,3.40
2023-01-09T02:37:25.390Z,3.30
2023-01-09T02:38:53.330Z,3.03
2023-01-09T02:40:07.195Z,3.03
2023-01-09T02:41:24.066Z,3.08
2023-01-09T02:42:27.075Z,3.10
2023-01-09T02:43:30.305Z,2.70
2023-01-09T02:44:36.618Z,2.60
2023-01-09T02:45:38.957Z,2.85
2023-01-09T02:46:41.242Z,3.13
2023-01-09T02:47:45.760Z,2.75
2023-01-09T02:48:51.610Z,3.15
2023-01-09T02:49:59.465Z,2.90
2023-01-09T02:51:26.536Z,3.00
2023-01-09T02:52:59.072Z,2.63
2023-01-09T02:54:21.719Z,2.30
2023-01-09T02:56:05.850Z,2.63
2023-01-09T02:57:26.707Z,2.55
2023-01-09T02:58:43.738Z,2.10
2023-01-09T03:00:09.055Z,2.30
2023-01-09T03:01:20.479Z,2.42
2023-01-09T03:02:34.457Z,2.30
2023-01-09T03:03:55.714Z,2.25
2023-01-09T03:05:16.450Z,2.40
2023-01-09T03:06:42.634Z,2.42
2023-01-09T03:07:56.506Z,2.20
2023-01-09T03:09:05.136Z,2.35
2023-01-09T03:10:24.820Z,2.25
2023-01-09T03:11:30.555Z,2.15
2023-01-09T03:12:33.843Z,2.45
2023-01-09T03:13:51.394Z,2.35
2023-01-09T03:14:58.117Z,1.88
2023-01-09T03:16:05.653Z,2.20
2023-01-09T03:17:12.782Z,2.00
2023-01-09T03:18:17.622Z,2.25
2023-01-09T03:19:23.892Z,2.22
2023-01-09T03:20:30.331Z,2.70
2023-01-09T03:21:34.150Z,2.40
2023-01-09T03:22:36.622Z,2.30
2023-01-09T03:23:57.252Z,2.03
2023-01-09T03:24:59.585Z,2.20
2023-01-09T03:26:01.916Z,2.00
2023-01-09T03:27:07.376Z,2.50
2023-01-09T03:28:24.593Z,2.03
2023-01-09T03:29:29.385Z,1.90
2023-01-09T03:30:33.569Z,2.03
2023-01-09T03:31:35.906Z,1.98
2023-01-09T03:32:38.221Z,1.90
2023-01-09T03:33:40.663Z,1.90
2023-01-09T03:34:43.121Z,1.90
2023-01-09T03:35:45.450Z,1.95
2023-01-09T03:36:47.819Z,2.22
2023-01-09T03:37:51.640Z,2.25
2023-01-09T03:38:53.918Z,2.15
2023-01-09T03:39:56.194Z,1.80
2023-01-09T03:40:58.645Z,1.88
2023-01-09T03:42:01.101Z,1.70
2023-01-09T03:43:03.413Z,1.98
2023-01-09T03:44:05.716Z,2.05
2023-01-09T03:45:08.318Z,2.10
2023-01-09T03:46:10.726Z,1.50
2023-01-09T03:47:13.255Z,1.88
2023-01-09T03:48:15.684Z,1.40
2023-01-09T03:49:17.990Z,1.42
2023-01-09T03:50:20.270Z,1.50
2023-01-09T03:51:22.595Z,1.70
2023-01-09T03:52:24.863Z,1.67
2023-01-09T03:53:28.353Z,1.60
2023-01-09T03:54:30.695Z,1.80
2023-01-09T03:55:32.979Z,1.60
2023-01-09T03:56:35.558Z,1.60
2023-01-09T03:57:37.857Z,1.52
2023-01-09T03:58:40.157Z,1.52
2023-01-09T03:59:42.474Z,1.50
2023-01-09T04:00:52.298Z,1.50
2023-01-09T04:01:54.989Z,1.45
2023-01-09T04:02:57.396Z,1.60
2023-01-09T04:03:59.767Z,1.50
2023-01-09T04:05:02.123Z,1.50
2023-01-09T04:06:04.674Z,1.17
2023-01-09T04:07:07.209Z,1.52
2023-01-09T04:08:09.494Z,1.60
2023-01-09T04:09:11.896Z,1.50
2023-01-09T04:10:14.193Z,1.48
2023-01-09T04:11:18.048Z,1.50
2023-01-09T04:12:20.360Z,1.40
2023-01-09T04:13:23.033Z,1.30
2023-01-09T04:14:25.326Z,1.30
2023-01-09T04:15:27.673Z,1.63
2023-01-09T04:16:29.949Z,1.35
2023-01-09T04:17:32.499Z,1.50
2023-01-09T04:18:34.793Z,1.40
2023-01-09T04:19:37.178Z,1.42
2023-01-09T04:20:39.596Z,1.10
2023-01-09T04:21:41.921Z,1.50
2023-01-09T04:22:44.574Z,1.27
2023-01-09T04:23:46.994Z,1.30
2023-01-09T04:24:49.319Z,0.90
2023-01-09T04:25:51.790Z,1.33
2023-01-09T04:26:55.462Z,1.60
2023-01-09T04:27:58.058Z,1.20
2023-01-09T04:29:00.622Z,1.27
2023-01-09T04:30:03.440Z,1.40
2023-01-09T04:31:05.981Z,1.45
2023-01-09T04:32:08.363Z,1.45
2023-01-09T04:33:10.730Z,1.10
2023-01-09T04:34:13.054Z,1.25
2023-01-09T04:35:15.500Z,1.38
2023-01-09T04:36:17.752Z,1.17
2023-01-09T04:37:20.445Z,1.27
2023-01-09T04:38:22.881Z,1.40
2023-01-09T04:39:25.159Z,1.20
2023-01-09T04:40:27.475Z,1.42
2023-01-09T04:41:48.438Z,1.40
2023-01-09T04:42:50.826Z,1.50
2023-01-09T04:43:53.136Z,1.30
2023-01-09T04:44:55.552Z,1.00
2023-01-09T04:45:57.792Z,1.05
2023-01-09T04:47:00.219Z,1.08
2023-01-09T04:48:02.512Z,1.25
2023-01-09T04:49:04.902Z,1.02
2023-01-09T04:50:07.693Z,0.95
2023-01-09T04:51:10.000Z,1.08
2023-01-09T04:52:12.321Z,1.38
2023-01-09T04:53:14.708Z,1.50
2023-01-09T04:54:17.187Z,0.98
2023-01-09T04:55:19.533Z,0.88
2023-01-09T04:56:21.853Z,1.13
2023-01-09T04:57:24.196Z,0.90
2023-01-09T04:58:26.484Z,1.10
2023-01-09T04:59:28.808Z,1.33
2023-01-09T05:00:31.153Z,1.10
2023-01-09T05:01:33.668Z,1.02
2023-01-09T05:02:37.109Z,1.15
2023-01-09T05:03:39.492Z,1.10
2023-01-09T05:04:41.892Z,1.10
2023-01-09T05:05:44.591Z,1.00
2023-01-09T05:06:46.868Z,1.10
2023-01-09T05:07:49.190Z,0.90
2023-01-09T05:08:51.533Z,1.13
2023-01-09T05:09:53.874Z,1.25
2023-01-09T05:10:56.133Z,1.33
2023-01-09T05:11:59.197Z,1.30
2023-01-09T05:13:02.758Z,1.17
2023-01-09T05:14:05.033Z,1.23
2023-01-09T05:15:08.627Z,1.20
2023-01-09T05:16:11.189Z,0.93
2023-01-09T05:17:13.602Z,0.88
2023-01-09T05:18:15.995Z,0.93
2023-01-09T05:19:18.285Z,1.00
2023-01-09T05:20:20.646Z,0.95
2023-01-09T05:21:25.667Z,0.80
2023-01-09T05:22:28.187Z,6.53
2023-01-09T05:23:30.495Z,4.55
2023-01-09T05:24:32.876Z,3.13
2023-01-09T05:25:35.274Z,5.57
2023-01-09T05:26:37.739Z,2.38
2023-01-09T05:27:40.014Z,2.10
2023-01-09T05:28:42.301Z,2.20
2023-01-09T05:29:44.601Z,2.65
2023-01-09T05:30:47.678Z,2.05
2023-01-09T05:31:49.997Z,2.10
2023-01-09T05:32:52.288Z,2.22
2023-01-09T05:33:55.939Z,1.85
2023-01-09T05:34:58.232Z,1.98
2023-01-09T05:36:00.587Z,2.70
2023-01-09T05:37:02.944Z,2.00
2023-01-09T05:38:06.032Z,2.38
2023-01-09T05:39:08.446Z,2.17
2023-01-09T05:40:11.344Z,2.22
2023-01-09T05:41:13.682Z,1.90
2023-01-09T05:42:15.987Z,2.03
2023-01-09T05:43:18.294Z,2.20
2023-01-09T05:44:20.580Z,2.00
2023-01-09T05:45:22.998Z,1.95
2023-01-09T05:46:25.527Z,1.88
2023-01-09T05:47:28.278Z,3.80
2023-01-09T05:48:30.570Z,14.77
2023-01-09T05:49:32.938Z,50.55
2023-01-09T05:50:35.284Z,43.40
2023-01-09T05:51:37.682Z,28.00
2023-01-09T05:52:40.290Z,21.67
2023-01-09T05:53:42.567Z,15.40
2023-01-09T05:54:44.910Z,13.00
2023-01-09T05:55:47.211Z,11.85
2023-01-09T05:56:49.517Z,11.65
2023-01-09T05:57:51.775Z,9.98
2023-01-09T05:58:54.111Z,16.67
2023-01-09T05:59:56.448Z,18.25
2023-01-09T06:00:59.124Z,26.00
2023-01-09T06:02:01.559Z,26.13
2023-01-09T06:03:04.031Z,22.38
2023-01-09T06:04:06.426Z,19.33
2023-01-09T06:05:09.459Z,15.40
2023-01-09T06:06:11.853Z,14.30
2023-01-09T06:07:19.497Z,14.00
2023-01-09T06:08:23.430Z,11.82
2023-01-09T06:09:25.781Z,12.18
2023-01-09T06:10:28.110Z,11.10
2023-01-09T06:11:30.443Z,10.43
2023-01-09T06:12:32.774Z,10.55
2023-01-09T06:13:35.077Z,10.77
2023-01-09T06:14:37.491Z,10.23
2023-01-09T06:15:39.971Z,9.40
2023-01-09T06:16:42.325Z,11.15
2023-01-09T06:17:44.668Z,14.65
2023-01-09T06:18:46.996Z,14.82
2023-01-09T06:19:49.309Z,8.18
2023-01-09T06:20:51.642Z,9.05
2023-01-09T06:21:54.108Z,12.00
2023-01-09T06:22:56.478Z,9.30
2023-01-09T06:23:59.026Z,9.63
2023-01-09T06:25:02.998Z,10.73
2023-01-09T06:26:05.290Z,9.73
2023-01-09T06:27:07.884Z,9.73
2023-01-09T06:28:10.207Z,8.45
2023-01-09T06:29:12.561Z,9.05
2023-01-09T06:30:14.970Z,8.48
2023-01-09T06:31:17.309Z,7.70
2023-01-09T06:32:19.843Z,7.18
2023-01-09T06:33:22.244Z,7.20
2023-01-09T06:34:24.530Z,7.32
2023-01-09T06:35:26.892Z,6.93
2023-01-09T06:36:29.211Z,11.15
2023-01-09T06:37:31.635Z,9.13
2023-01-09T06:38:33.929Z,9.55
2023-01-09T06:39:36.276Z,8.98
2023-01-09T06:40:38.840Z,8.52
2023-01-09T06:41:42.034Z,7.97
2023-01-09T06:42:45.972Z,8.32
2023-01-09T06:43:48.309Z,7.60
2023-01-09T06:44:50.841Z,7.93
2023-01-09T06:45:53.563Z,7.25
2023-01-09T06:46:56.009Z,7.72
2023-01-09T06:47:58.250Z,7.60
2023-01-09T06:49:00.589Z,7.50
2023-01-09T06:50:03.272Z,8.00
2023-01-09T06:51:06.017Z,7.22
2023-01-09T06:52:08.740Z,7.38
2023-01-09T06:53:11.365Z,7.03
2023-01-09T06:54:13.747Z,6.70
2023-01-09T06:55:17.659Z,6.88
2023-01-09T06:56:20.171Z,9.25
2023-01-09T06:57:22.450Z,7.68
2023-01-09T06:58:24.836Z,12.85
2023-01-09T06:59:27.336Z,9.00
2023-01-09T07:00:31.357Z,7.63
2023-01-09T07:01:33.801Z,8.13
2023-01-09T07:02:36.177Z,7.57
2023-01-09T07:03:38.548Z,8.52
2023-01-09T07:04:40.788Z,8.75
2023-01-09T07:05:43.421Z,9.15
2023-01-09T07:06:48.548Z,8.48
2023-01-09T07:07:51.098Z,7.97
2023-01-09T07:08:53.431Z,7.45
2023-01-09T07:09:55.772Z,7.22
2023-01-09T07:10:58.281Z,7.47
2023-01-09T07:12:00.622Z,7.47
2023-01-09T07:13:02.956Z,7.70
2023-01-09T07:14:05.620Z,7.03
2023-01-09T07:15:08.318Z,7.20
2023-01-09T07:16:10.758Z,7.45
2023-01-09T07:17:13.620Z,6.72
2023-01-09T07:18:15.998Z,7.28
2023-01-09T07:19:18.391Z,6.45
2023-01-09T07:20:21.110Z,6.85
2023-01-09T07:21:23.665Z,7.20
2023-01-09T07:22:26.078Z,6.55
2023-01-09T07:23:28.374Z,6.50
2023-01-09T07:24:30.725Z,7.13
2023-01-09T07:25:33.027Z,6.43
2023-01-09T07:26:35.346Z,5.60
2023-01-09T07:27:37.679Z,6.47
2023-01-09T07:28:39.921Z,6.72
2023-01-09T07:29:42.199Z,6.93
2023-01-09T07:30:44.495Z,6.38
2023-01-09T07:31:47.098Z,6.40
2023-01-09T07:32:49.391Z,6.13
2023-01-09T07:33:51.726Z,6.68
2023-01-09T07:34:54.018Z,7.40
2023-01-09T07:35:56.416Z,7.45
2023-01-09T07:36:58.702Z,7.07
2023-01-09T07:38:01.147Z,7.50
2023-01-09T07:39:03.735Z,6.63
2023-01-09T07:40:06.705Z,7.13
2023-01-09T07:41:09.037Z,6.28
2023-01-09T07:42:12.033Z,6.00
2023-01-09T07:43:14.529Z,6.25
2023-01-09T07:44:16.848Z,6.45
2023-01-09T07:45:19.248Z,6.45
2023-01-09T07:46:21.557Z,7.15
2023-01-09T07:47:23.895Z,5.97
2023-01-09T07:48:26.223Z,5.55
2023-01-09T07:49:28.585Z,7.13
2023-01-09T07:50:30.844Z,6.05
2023-01-09T07:51:33.321Z,6.80
2023-01-09T07:52:35.616Z,26.40
2023-01-09T07:53:37.954Z,20.17
2023-01-09T07:54:40.270Z,18.75
2023-01-09T07:55:43.590Z,11.55
2023-01-09T07:56:45.868Z,8.82
2023-01-09T07:57:51.551Z,6.82
2023-01-09T07:58:53.911Z,6.18
2023-01-09T07:59:56.580Z,4.88
2023-01-09T08:00:58.955Z,6.03
2023-01-09T08:02:02.480Z,5.38
2023-01-09T08:03:04.963Z,5.50
2023-01-09T08:04:07.601Z,6.50
2023-01-09T08:05:14.690Z,7.18
2023-01-09T08:06:17.051Z,8.10
2023-01-09T08:07:19.378Z,7.85
2023-01-09T08:08:22.645Z,7.53
2023-01-09T08:09:25.516Z,7.15
2023-01-09T08:10:31.199Z,7.75
2023-01-09T08:11:33.787Z,7.53
2023-01-09T08:12:36.276Z,7.00
2023-01-09T08:13:38.798Z,6.63
2023-01-09T08:14:41.110Z,7.10
2023-01-09T08:15:43.715Z,6.97
2023-01-09T08:16:46.160Z,7.03
2023-01-09T08:17:48.608Z,6.68
2023-01-09T08:18:51.124Z,7.97
2023-01-09T08:19:53.706Z,13.63
2023-01-09T08:20:56.348Z,14.48
2023-01-09T08:21:58.832Z,9.48
2023-01-09T08:23:01.161Z,8.80
2023-01-09T08:24:03.568Z,7.53
2023-01-09T08:25:06.298Z,6.85
2023-01-09T08:26:08.800Z,6.65
2023-01-09T08:27:11.161Z,7.25
2023-01-09T08:28:13.494Z,7.50
2023-01-09T08:29:15.988Z,6.55
2023-01-09T08:30:18.755Z,7.00
2023-01-09T08:31:21.128Z,7.45
2023-01-09T08:32:23.635Z,7.05
2023-01-09T08:33:26.607Z,6.25
2023-01-09T08:34:29.092Z,5.97
2023-01-09T08:35:31.634Z,6.88
2023-01-09T08:36:33.935Z,6.15
2023-01-09T08:37:36.214Z,6.63
2023-01-09T08:38:38.514Z,6.78
2023-01-09T08:39:40.887Z,12.55
2023-01-09T08:40:43.281Z,5.30
2023-01-09T08:42:04.418Z,7.90
2023-01-09T08:43:25.475Z,16.10
2023-01-09T08:44:46.545Z,14.15
2023-01-09T08:46:07.718Z,7.53
2023-01-09T08:47:10.296Z,6.35
2023-01-09T08:48:12.616Z,21.17
2023-01-09T08:49:14.939Z,42.30
2023-01-09T08:50:17.282Z,31.75
2023-01-09T08:51:19.625Z,20.30
2023-01-09T08:52:21.951Z,20.38
2023-01-09T08:53:24.288Z,17.33
2023-01-09T08:54:26.829Z,17.05
2023-01-09T08:55:29.088Z,15.57
2023-01-09T08:56:31.396Z,14.15
2023-01-09T08:57:33.999Z,14.23
2023-01-09T08:58:36.345Z,12.27
2023-01-09T08:59:38.707Z,12.52
2023-01-09T09:00:41.209Z,11.15
2023-01-09T09:01:43.866Z,10.43
2023-01-09T09:02:50.399Z,10.05
2023-01-09T09:03:53.592Z,10.10
2023-01-09T09:04:56.294Z,9.32
2023-01-09T09:05:58.643Z,10.07
2023-01-09T09:07:01.165Z,9.52
2023-01-09T09:08:04.110Z,8.85
2023-01-09T09:09:06.869Z,8.77
2023-01-09T09:10:09.769Z,9.07
2023-01-09T09:11:12.188Z,8.57
2023-01-09T09:12:14.570Z,8.68
2023-01-09T09:13:16.897Z,9.43
2023-01-09T09:14:37.973Z,10.27
2023-01-09T09:15:40.364Z,30.02
2023-01-09T09:16:42.807Z,55.35
2023-01-09T09:17:45.415Z,24.10
2023-01-09T09:18:47.778Z,17.98
2023-01-09T09:19:50.084Z,52.85
2023-01-09T09:20:52.409Z,43.80
2023-01-09T09:21:54.688Z,43.58
2023-01-09T09:22:57.327Z,38.97
2023-01-09T09:24:00.031Z,33.53
2023-01-09T09:25:04.765Z,28.02
2023-01-09T09:26:07.376Z,23.58
2023-01-09T09:27:09.807Z,21.80
2023-01-09T09:28:12.105Z,20.73
2023-01-09T09:29:14.612Z,17.75
2023-01-09T09:30:19.020Z,17.58
2023-01-09T09:31:21.301Z,17.00
2023-01-09T09:32:23.660Z,16.05
2023-01-09T09:33:25.968Z,16.27
2023-01-09T09:34:28.284Z,16.45
2023-01-09T09:35:32.357Z,17.02
2023-01-09T09:36:34.871Z,16.30
2023-01-09T09:37:38.068Z,16.08
2023-01-09T09:38:40.389Z,17.40
2023-01-09T09:39:42.704Z,16.95
2023-01-09T09:41:07.951Z,16.67
2023-01-09T09:42:44.994Z,16.48
2023-01-09T09:44:19.315Z,16.40
2023-01-09T09:45:26.063Z,15.55
2023-01-09T09:46:46.795Z,17.73
2023-01-09T09:48:04.174Z,19.20
2023-01-09T09:49:18.910Z,15.88
2023-01-09T09:50:36.382Z,15.57
2023-01-09T09:51:48.786Z,16.50
2023-01-09T09:53:01.760Z,20.35
2023-01-09T09:54:14.096Z,18.92
2023-01-09T09:55:27.460Z,20.20
2023-01-09T09:56:36.142Z,17.42
2023-01-09T09:57:39.355Z,15.88
2023-01-09T09:58:49.446Z,16.60
2023-01-09T09:59:53.137Z,14.43
2023-01-09T10:00:58.273Z,15.70
2023-01-09T10:02:09.312Z,15.48
2023-01-09T10:03:33.015Z,16.13
2023-01-09T10:04:40.787Z,15.82
2023-01-09T10:05:48.048Z,15.13
2023-01-09T10:06:58.757Z,16.00
2023-01-09T10:08:21.627Z,15.73
2023-01-09T10:09:49.095Z,15.20
2023-01-09T10:10:54.110Z,14.55
2023-01-09T10:12:08.134Z,15.30
2023-01-09T10:13:35.828Z,15.50
2023-01-09T10:14:39.344Z,14.80
2023-01-09T10:15:47.341Z,15.13
2023-01-09T10:17:03.454Z,16.40
2023-01-09T10:18:05.753Z,15.13
2023-01-09T10:19:29.487Z,15.52
2023-01-09T10:20:34.762Z,14.90
2023-01-09T10:22:07.829Z,14.82
2023-01-09T10:23:37.552Z,14.55
2023-01-09T10:24:52.063Z,14.88
2023-01-09T10:26:06.653Z,14.73
2023-01-09T10:27:28.604Z,15.40
2023-01-09T10:28:45.610Z,13.85
2023-01-09T10:30:03.539Z,13.25
2023-01-09T10:31:13.691Z,14.68
2023-01-09T10:32:34.158Z,14.18
2023-01-09T10:33:51.200Z,14.13
2023-01-09T10:35:08.292Z,14.10
2023-01-09T10:36:34.655Z,16.13
2023-01-09T10:37:46.690Z,15.65
2023-01-09T10:38:54.304Z,17.17
2023-01-09T10:40:25.716Z,16.83
2023-01-09T10:41:34.248Z,20.73
2023-01-09T10:42:47.477Z,16.40
2023-01-09T10:43:53.819Z,14.40
2023-01-09T10:45:14.159Z,15.50
2023-01-09T10:46:26.694Z,13.88
2023-01-09T10:47:34.131Z,13.77
2023-01-09T10:48:40.639Z,13.75
2023-01-09T10:49:43.689Z,14.80
2023-01-09T10:50:47.890Z,12.90
2023-01-09T10:52:22.848Z,14.38
2023-01-09T10:53:34.424Z,14.90
2023-01-09T10:54:43.132Z,14.15
2023-01-09T10:55:47.767Z,12.20
2023-01-09T10:57:10.489Z,13.88
2023-01-09T10:58:19.704Z,13.75
2023-01-09T10:59:23.454Z,13.05
2023-01-09T11:00:26.632Z,14.88
2023-01-09T11:01:33.459Z,15.30
2023-01-09T11:02:36.216Z,13.38
2023-01-09T11:03:38.930Z,13.23
2023-01-09T11:04:43.458Z,14.38
2023-01-09T11:05:52.272Z,14.43
2023-01-09T11:07:02.619Z,14.20
2023-01-09T11:08:16.172Z,13.45
2023-01-09T11:09:19.024Z,12.82
2023-01-09T11:10:24.126Z,13.98
2023-01-09T11:11:38.098Z,12.77
2023-01-09T11:12:41.238Z,14.48
2023-01-09T11:13:48.414Z,13.00
2023-01-09T11:14:50.850Z,12.95
2023-01-09T11:16:02.219Z,12.57
2023-01-09T11:18:22.105Z,8.80
2023-01-09T11:19:25.988Z,19.63
2023-01-09T11:20:29.921Z,23.00
2023-01-09T11:21:40.582Z,33.92
2023-01-09T11:22:48.419Z,17.88
2023-01-09T11:23:50.789Z,14.23
2023-01-09T11:25:03.647Z,16.35
2023-01-09T11:26:06.179Z,17.45
2023-01-09T11:27:14.254Z,16.58
2023-01-09T11:28:16.598Z,16.00
2023-01-09T11:29:21.147Z,14.48
2023-01-09T11:30:26.442Z,14.63
2023-01-09T11:31:29.062Z,14.60
2023-01-09T11:32:32.896Z,12.15
2023-01-09T11:33:38.115Z,12.40
2023-01-09T11:34:45.061Z,12.32
2023-01-09T11:35:57.541Z,12.18
2023-01-09T11:37:11.870Z,11.73
2023-01-09T11:38:18.346Z,12.48
2023-01-09T11:39:30.007Z,12.68
2023-01-09T11:40:38.551Z,11.80
2023-01-09T11:41:40.986Z,11.32
2023-01-09T11:43:03.114Z,12.27
2023-01-09T11:44:05.647Z,11.95
2023-01-09T11:45:31.324Z,11.23
2023-01-09T11:46:43.741Z,11.57
2023-01-09T11:47:46.955Z,10.82
2023-01-09T11:48:57.192Z,11.65
2023-01-09T11:50:30.105Z,11.38
2023-01-09T11:51:35.413Z,11.02
2023-01-09T11:52:37.728Z,11.30
2023-01-09T11:54:01.884Z,10.88
2023-01-09T11:55:13.226Z,11.63
2023-01-09T11:57:21.814Z,10.10
2023-01-09T11:58:24.176Z,11.05
2023-01-09T11:59:29.051Z,11.40
2023-01-09T12:00:44.304Z,11.75
2023-01-09T12:01:55.216Z,12.55
2023-01-09T12:03:32.262Z,11.18
2023-01-09T12:05:01.016Z,11.43
2023-01-09T12:06:20.523Z,11.15
2023-01-09T12:07:32.279Z,11.07
2023-01-09T12:08:55.251Z,11.57
2023-01-09T12:09:57.674Z,10.93
2023-01-09T12:11:28.390Z,11.43
2023-01-09T12:12:53.884Z,13.15
2023-01-09T12:14:03.562Z,11.18
2023-01-09T12:15:23.300Z,11.15
2023-01-09T12:16:55.261Z,31.05
2023-01-09T12:19:45.466Z,19.38
2023-01-09T12:21:32.703Z,19.75
2023-01-09T12:22:57.393Z,18.77
2023-01-09T12:24:25.147Z,17.23
2023-01-09T12:51:45.106Z,11.60
2023-01-09T12:53:01.071Z,14.30
2023-01-09T12:54:26.930Z,13.90
2023-01-09T12:55:36.299Z,11.45
2023-01-09T12:56:41.212Z,12.43
2023-01-09T12:57:50.743Z,12.02
2023-01-09T12:58:59.229Z,11.23
2023-01-09T13:00:18.934Z,12.20
2023-01-09T13:01:28.593Z,12.38
2023-01-09T13:03:26.584Z,11.07
2023-01-09T13:04:34.848Z,11.52
2023-01-09T13:05:45.397Z,10.95
2023-01-09T13:06:54.285Z,10.00
2023-01-09T13:22:37.032Z,15.23
2023-01-09T13:26:09.975Z,14.75
2023-01-09T13:27:20.925Z,14.75
2023-01-09T13:28:59.810Z,14.30
2023-01-09T13:30:08.852Z,14.27
2023-01-09T13:31:42.771Z,13.05
2023-01-09T13:32:58.944Z,12.60
2023-01-09T13:34:04.402Z,14.07
2023-01-09T13:35:13.573Z,11.45
2023-01-09T13:36:29.407Z,33.08
2023-01-09T13:37:36.825Z,36.05
2023-01-09T13:38:39.392Z,32.58
2023-01-09T13:39:41.759Z,20.17
2023-01-09T13:40:44.198Z,19.30
2023-01-09T13:42:09.340Z,16.15
2023-01-09T13:43:14.653Z,16.27
2023-01-09T13:44:22.787Z,15.95
2023-01-09T13:45:28.047Z,16.83
2023-01-09T13:47:02.269Z,15.93
2023-01-09T13:48:11.114Z,15.57
2023-01-09T13:49:29.505Z,14.55
2023-01-09T13:50:31.833Z,14.32
2023-01-09T13:52:01.210Z,15.98
2023-01-09T13:53:18.904Z,14.85
2023-01-09T13:54:58.650Z,14.93
2023-01-09T13:56:02.309Z,14.82
2023-01-09T13:57:28.626Z,15.07
2023-01-09T13:58:38.084Z,14.32
2023-01-09T13:59:40.438Z,14.43
2023-01-09T14:00:42.847Z,14.35
2023-01-09T14:01:47.422Z,13.90
2023-01-09T14:02:57.728Z,13.73
2023-01-09T14:04:14.018Z,14.35
2023-01-09T14:05:37.094Z,13.55
2023-01-09T14:06:39.724Z,13.48
2023-01-09T14:07:44.456Z,13.30
2023-01-09T14:08:49.250Z,14.57
2023-01-09T14:10:20.301Z,13.68
2023-01-09T14:11:27.109Z,15.77
2023-01-09T14:12:32.206Z,14.35
2023-01-09T14:13:40.741Z,14.07
2023-01-09T14:14:46.178Z,15.15
2023-01-09T14:15:50.793Z,14.30
2023-01-09T14:16:53.124Z,14.00
2023-01-09T14:18:04.270Z,14.30
2023-01-09T14:19:25.797Z,13.48
2023-01-09T14:20:38.683Z,12.90
2023-01-09T14:21:54.243Z,13.52
2023-01-09T14:23:18.084Z,12.95
2023-01-09T14:24:46.657Z,12.63
2023-01-09T14:25:51.155Z,13.70
2023-01-09T14:26:57.092Z,13.38
2023-01-09T14:28:00.214Z,12.18
2023-01-09T14:29:31.942Z,12.40
2023-01-09T14:30:36.883Z,13.02
2023-01-09T14:31:39.256Z,13.75
2023-01-09T14:32:43.817Z,11.50
2023-01-09T14:33:47.572Z,14.02
2023-01-09T14:35:19.521Z,22.33
2023-01-09T14:36:27.130Z,13.25
2023-01-09T14:37:30.493Z,45.90
2023-01-09T14:38:43.107Z,28.65
2023-01-09T14:39:46.886Z,25.85
2023-01-09T14:41:00.779Z,23.00
2023-01-09T14:42:09.301Z,19.52
2023-01-09T14:43:41.342Z,17.50
2023-01-09T14:45:00.832Z,15.32
2023-01-09T14:46:11.792Z,14.23
2023-01-09T14:47:27.326Z,12.60
2023-01-09T14:48:30.868Z,11.35
2023-01-09T14:49:41.774Z,13.07
2023-01-09T14:50:55.571Z,12.95
2023-01-09T14:52:02.969Z,12.45
2023-01-09T14:53:26.230Z,11.80
2023-01-09T14:54:33.789Z,11.77
2023-01-09T14:55:41.874Z,12.15
2023-01-09T14:56:48.038Z,11.93
2023-01-09T14:57:54.854Z,11.98
2023-01-09T14:59:27.195Z,12.45
2023-01-09T15:00:29.577Z,11.75
2023-01-09T15:01:36.261Z,11.38
2023-01-09T15:02:39.622Z,11.57
2023-01-09T15:03:49.313Z,11.75
2023-01-09T15:04:51.694Z,11.43
2023-01-09T15:05:54.274Z,12.02
2023-01-09T15:06:56.621Z,12.50
2023-01-09T15:08:03.415Z,11.52
2023-01-09T15:09:08.852Z,12.15
2023-01-09T15:10:24.120Z,11.77
2023-01-09T15:11:27.638Z,11.43
2023-01-09T15:12:31.956Z,10.93
2023-01-09T15:13:43.088Z,11.85
2023-01-09T15:14:49.959Z,14.25
2023-01-09T15:15:52.283Z,6.35
2023-01-09T15:16:54.859Z,6.53
2023-01-09T15:18:01.207Z,35.83
2023-01-09T15:19:07.916Z,45.17
2023-01-09T15:20:20.307Z,36.22
2023-01-09T15:21:30.937Z,28.40
2023-01-09T15:22:36.035Z,24.38
2023-01-09T15:23:38.581Z,21.48
2023-01-09T15:24:41.179Z,21.52
2023-01-09T15:25:46.063Z,19.38
2023-01-09T15:27:11.355Z,18.13
2023-01-09T15:28:25.293Z,17.17